Time;durP1;ratioP1;P1;durP2;ratioP2;P2;SDS_P1;SDS_P2;PMS_P1;PMS_P2;Temp;Humidity;BMP_temperature;BMP_pressure;BME280_temperature;BME280_humidity;BME280_pressure;Samples;Min_cycle;Max_cycle;Signal;HPM_P1;HPM_P2
2023/07/06 00:01:26;;;;;;;2.20;1.10;;;17.00;99.90;;;;;;5045318;28;20587;-77
2023/07/06 00:03:56;;;;;;;2.53;1.40;;;17.00;99.90;;;;;;5034525;28;20580;-77
2023/07/06 00:06:22;;;;;;;1.97;1.00;;;17.00;99.90;;;;;;5034390;28;20572;-77
2023/07/06 00:08:48;;;;;;;1.87;0.93;;;17.00;99.90;;;;;;5031866;28;20604;-77
2023/07/06 00:11:14;;;;;;;2.00;1.20;;;17.00;99.90;;;;;;5031955;28;20683;-77
2023/07/06 00:13:40;;;;;;;2.07;1.40;;;17.00;99.90;;;;;;5032483;28;20213;-77
2023/07/06 00:16:07;;;;;;;3.83;1.33;;;17.00;99.90;;;;;;5033296;28;20280;-77
2023/07/06 00:18:33;;;;;;;2.60;1.33;;;17.00;99.90;;;;;;5031703;28;20634;-77
2023/07/06 00:21:00;;;;;;;3.10;1.10;;;16.90;99.90;;;;;;5032812;28;21201;-77
2023/07/06 00:23:26;;;;;;;3.53;1.17;;;16.90;99.90;;;;;;5033392;28;20582;-77
2023/07/06 00:25:52;;;;;;;5.20;1.70;;;16.80;99.90;;;;;;5033279;28;20964;-77
2023/07/06 00:28:24;;;;;;;2.57;1.20;;;16.80;99.90;;;;;;5032481;28;20646;-77
2023/07/06 00:31:02;;;;;;;3.80;1.27;;;16.70;99.90;;;;;;5032099;28;20231;-77
2023/07/06 00:33:28;;;;;;;1.90;1.10;;;16.70;99.90;;;;;;5015012;28;20580;-78
2023/07/06 00:35:54;;;;;;;2.33;1.50;;;16.60;99.90;;;;;;5015354;28;20755;-76
2023/07/06 00:38:23;;;;;;;2.60;1.60;;;16.60;99.90;;;;;;5030963;28;20671;-77
2023/07/06 00:40:52;;;;;;;3.63;1.27;;;16.50;99.90;;;;;;5031671;28;20577;-76
2023/07/06 00:43:21;;;;;;;2.67;1.10;;;16.40;99.90;;;;;;5032249;28;20667;-77
2023/07/06 00:45:52;;;;;;;2.40;1.50;;;16.40;99.90;;;;;;5031770;28;20615;-77
2023/07/06 00:48:35;;;;;;;5.40;1.50;;;16.40;99.90;;;;;;5031064;28;20572;-77
2023/07/06 00:51:08;;;;;;;2.50;1.17;;;16.30;99.90;;;;;;5014647;28;20911;-77
2023/07/06 00:53:38;;;;;;;3.20;1.30;;;16.30;99.90;;;;;;5014852;28;20576;-77
2023/07/06 00:56:07;;;;;;;2.97;1.53;;;16.20;99.90;;;;;;4984237;28;20628;-77
2023/07/06 00:58:43;;;;;;;2.43;1.57;;;16.20;99.90;;;;;;5030739;28;20576;-77
2023/07/06 01:01:11;;;;;;;2.80;1.30;;;16.20;99.90;;;;;;5030882;28;20575;-77
2023/07/06 01:03:43;;;;;;;2.80;1.43;;;16.20;99.90;;;;;;5014902;28;20584;-77
2023/07/06 01:06:14;;;;;;;4.07;1.90;;;16.10;99.90;;;;;;5031936;28;20596;-77
2023/07/06 01:08:40;;;;;;;3.60;1.23;;;16.10;99.90;;;;;;5031684;28;20672;-77
2023/07/06 01:11:09;;;;;;;2.40;1.47;;;16.00;99.90;;;;;;5030442;28;20576;-77
2023/07/06 01:13:36;;;;;;;5.07;1.60;;;16.00;99.90;;;;;;5032640;28;21115;-77
2023/07/06 01:16:06;;;;;;;3.03;1.20;;;16.00;99.90;;;;;;5030010;28;20652;-78
2023/07/06 01:18:54;;;;;;;2.37;1.30;;;15.90;99.90;;;;;;5030957;28;20581;-77
2023/07/06 01:21:32;;;;;;;4.87;1.50;;;15.90;99.90;;;;;;5031658;28;20600;-78
2023/07/06 01:24:07;;;;;;;2.50;1.30;;;15.90;99.90;;;;;;5014669;28;20679;-77
2023/07/06 01:26:53;;;;;;;3.60;1.80;;;15.80;99.90;;;;;;5014045;28;20576;-77
2023/07/06 01:29:28;;;;;;;2.00;1.33;;;15.80;99.90;;;;;;4984537;28;20600;-77
2023/07/06 01:32:02;;;;;;;2.57;1.47;;;15.80;99.90;;;;;;5013972;28;21189;-77
2023/07/06 01:34:41;;;;;;;4.60;1.67;;;15.70;99.90;;;;;;5030626;28;20652;-77
2023/07/06 01:37:34;;;;;;;3.17;1.80;;;15.70;99.90;;;;;;5014063;28;20579;-77
2023/07/06 01:40:01;;;;;;;2.63;1.30;;;15.60;99.90;;;;;;5030627;28;20577;-77
2023/07/06 01:42:32;;;;;;;3.30;1.37;;;15.60;99.90;;;;;;5030187;28;20569;-77
2023/07/06 01:45:09;;;;;;;4.43;1.50;;;15.60;99.90;;;;;;5013325;28;20620;-77
2023/07/06 01:47:39;;;;;;;2.57;1.40;;;15.50;99.90;;;;;;5013559;28;20576;-77
2023/07/06 01:50:09;;;;;;;2.57;1.50;;;15.50;99.90;;;;;;5030315;28;20691;-77
2023/07/06 01:52:59;;;;;;;2.67;1.27;;;15.40;99.90;;;;;;5013615;28;20580;-77
2023/07/06 01:55:31;;;;;;;2.70;1.00;;;15.40;99.90;;;;;;5012888;28;20720;-78
2023/07/06 01:58:15;;;;;;;3.30;1.13;;;15.40;99.90;;;;;;5013590;28;20643;-77
2023/07/06 02:00:53;;;;;;;2.73;1.23;;;15.40;99.90;;;;;;5013923;28;20576;-77
2023/07/06 02:03:19;;;;;;;3.10;1.30;;;15.30;99.90;;;;;;5030695;28;20615;-78
2023/07/06 02:05:46;;;;;;;2.97;1.10;;;15.30;99.90;;;;;;5012967;28;20608;-77
2023/07/06 02:08:13;;;;;;;3.00;1.23;;;15.30;99.90;;;;;;5029712;28;20705;-77
2023/07/06 02:10:39;;;;;;;4.78;2.42;;;15.30;99.90;;;;;;5030304;28;20584;-78
2023/07/06 02:13:05;;;;;;;2.00;1.20;;;15.20;99.90;;;;;;5013300;28;20204;-77
2023/07/06 02:15:31;;;;;;;2.63;1.17;;;15.20;99.90;;;;;;5030124;28;20652;-77
2023/07/06 02:17:57;;;;;;;2.13;1.17;;;15.20;99.90;;;;;;5029058;28;20630;-78
2023/07/06 02:20:23;;;;;;;3.30;1.80;;;15.20;99.90;;;;;;5013783;28;20576;-77
2023/07/06 02:22:49;;;;;;;2.57;1.30;;;15.10;99.90;;;;;;5013003;28;20174;-77
2023/07/06 02:25:15;;;;;;;4.27;1.70;;;15.10;99.90;;;;;;5013686;28;20692;-77
2023/07/06 02:27:41;;;;;;;2.30;1.10;;;15.10;99.90;;;;;;5012817;28;20591;-78
2023/07/06 02:30:08;;;;;;;2.60;1.30;;;15.00;99.90;;;;;;5029132;28;21120;-77
2023/07/06 02:32:34;;;;;;;3.08;1.42;;;15.00;99.90;;;;;;5030612;28;20670;-77
2023/07/06 02:35:02;;;;;;;2.45;1.30;;;15.00;99.90;;;;;;5031476;28;20301;-77
2023/07/06 02:37:28;;;;;;;2.60;1.37;;;15.00;99.90;;;;;;5029735;28;20556;-78
2023/07/06 02:39:54;;;;;;;2.95;1.20;;;15.00;99.90;;;;;;5013171;28;20585;-78
2023/07/06 02:42:21;;;;;;;2.75;1.38;;;14.90;99.90;;;;;;5029399;28;20566;-77
2023/07/06 02:44:47;;;;;;;2.80;1.20;;;14.90;99.90;;;;;;5012389;28;20554;-77
2023/07/06 02:47:13;;;;;;;4.87;1.80;;;14.90;99.90;;;;;;5029358;28;20173;-77
2023/07/06 02:49:39;;;;;;;2.97;1.43;;;14.90;99.90;;;;;;5012993;28;20201;-77
2023/07/06 02:52:05;;;;;;;3.38;1.05;;;14.90;99.90;;;;;;5028898;28;20194;-77
2023/07/06 02:54:32;;;;;;;2.35;1.00;;;14.80;99.90;;;;;;5012997;28;20219;-77
2023/07/06 02:57:02;;;;;;;2.50;1.23;;;14.80;99.90;;;;;;5012693;28;20177;-77
2023/07/06 02:59:31;;;;;;;2.47;1.10;;;14.80;99.90;;;;;;5031215;28;20173;-77
2023/07/06 03:01:58;;;;;;;5.57;1.35;;;14.70;99.90;;;;;;5012812;28;20174;-77
2023/07/06 03:04:25;;;;;;;5.30;1.52;;;14.70;99.90;;;;;;5030988;28;20609;-77
2023/07/06 03:06:51;;;;;;;2.42;1.13;;;14.60;99.90;;;;;;5029247;28;20177;-77
2023/07/06 03:09:18;;;;;;;3.13;1.30;;;14.60;99.90;;;;;;5013199;28;20244;-77
2023/07/06 03:11:44;;;;;;;4.53;1.47;;;14.60;99.90;;;;;;5028791;28;20205;-77
2023/07/06 03:14:10;;;;;;;5.30;1.55;;;14.60;99.90;;;;;;5028555;28;20197;-77
2023/07/06 03:16:39;;;;;;;2.28;1.00;;;14.60;99.90;;;;;;5028722;28;20261;-77
2023/07/06 03:19:10;;;;;;;2.45;1.30;;;14.50;99.90;;;;;;5029306;28;20172;-78
2023/07/06 03:21:40;;;;;;;1.80;1.20;;;14.50;99.90;;;;;;5012362;28;20201;-77
2023/07/06 03:24:07;;;;;;;3.45;1.52;;;14.50;99.90;;;;;;5028728;28;20187;-78
2023/07/06 03:26:34;;;;;;;4.65;1.17;;;14.50;99.90;;;;;;5012403;28;20204;-77
2023/07/06 03:29:08;;;;;;;2.10;1.00;;;14.50;99.90;;;;;;5028979;28;20567;-77
2023/07/06 03:31:34;;;;;;;2.50;1.23;;;14.50;99.90;;;;;;5032941;28;20192;-78
2023/07/06 03:34:02;;;;;;;2.70;1.23;;;14.50;99.90;;;;;;5032592;28;20237;-77
2023/07/06 03:36:28;;;;;;;1.90;1.17;;;14.50;99.90;;;;;;5033269;28;20170;-77
2023/07/06 03:38:53;;;;;;;2.33;1.30;;;14.50;99.90;;;;;;5032271;28;20579;-78
2023/07/06 03:41:19;;;;;;;3.73;1.20;;;14.50;99.90;;;;;;5032745;28;20682;-77
2023/07/06 03:43:46;;;;;;;1.83;1.10;;;14.50;99.90;;;;;;5034406;28;20170;-77
2023/07/06 03:46:15;;;;;;;2.10;1.48;;;14.50;99.90;;;;;;5035151;28;20273;-77
2023/07/06 03:48:44;;;;;;;4.70;1.10;;;14.60;99.90;;;;;;5017249;28;20180;-77
2023/07/06 03:51:11;;;;;;;2.35;1.15;;;14.60;99.90;;;;;;5032761;28;20600;-77
2023/07/06 03:53:37;;;;;;;3.15;1.48;;;14.60;99.90;;;;;;5034413;28;20184;-77
2023/07/06 03:56:03;;;;;;;2.30;1.17;;;14.60;99.90;;;;;;5034141;28;20272;-77
2023/07/06 03:58:29;;;;;;;3.17;1.75;;;14.60;99.90;;;;;;5033868;28;20352;-77
2023/07/06 04:00:58;;;;;;;3.73;1.67;;;14.70;99.90;;;;;;5034416;28;20717;-77
2023/07/06 04:03:27;;;;;;;5.05;1.77;;;14.70;99.90;;;;;;5034397;28;20560;-77
2023/07/06 04:05:53;;;;;;;6.68;1.30;;;14.80;99.90;;;;;;5034226;28;20272;-77
2023/07/06 04:08:21;;;;;;;2.10;1.33;;;14.80;99.90;;;;;;5032822;28;20699;-77
2023/07/06 04:10:47;;;;;;;3.30;1.20;;;14.90;99.90;;;;;;5029768;28;20612;-77
2023/07/06 04:13:16;;;;;;;4.87;1.37;;;15.00;99.90;;;;;;5031923;28;20648;-77
2023/07/06 04:15:49;;;;;;;3.77;1.30;;;15.00;99.90;;;;;;5032886;28;20267;-77
2023/07/06 04:18:15;;;;;;;2.70;1.40;;;15.10;99.90;;;;;;5033470;28;20572;-76
2023/07/06 04:20:41;;;;;;;1.70;1.20;;;15.10;99.90;;;;;;5035326;28;20564;-77
2023/07/06 04:23:09;;;;;;;4.00;1.40;;;15.20;99.90;;;;;;5035760;28;20634;-77
2023/07/06 04:25:36;;;;;;;3.67;1.60;;;15.30;99.90;;;;;;5033634;28;20626;-77
2023/07/06 04:28:11;;;;;;;5.90;1.30;;;15.30;99.90;;;;;;5031603;28;20666;-77
2023/07/06 04:30:42;;;;;;;3.30;1.60;;;15.40;99.90;;;;;;5033366;28;20588;-77
2023/07/06 04:33:15;;;;;;;2.73;1.10;;;15.50;99.90;;;;;;5031661;28;20588;-77
2023/07/06 04:35:41;;;;;;;2.77;1.50;;;15.60;99.90;;;;;;5031564;28;20647;-77
2023/07/06 04:38:08;;;;;;;3.27;1.73;;;15.80;99.90;;;;;;5033020;28;20915;-77
2023/07/06 04:40:34;;;;;;;4.90;1.40;;;15.90;99.90;;;;;;5014779;28;20580;-77
2023/07/06 04:43:00;;;;;;;4.60;1.77;;;16.10;99.90;;;;;;5032919;28;20599;-77
2023/07/06 04:45:27;;;;;;;3.00;1.43;;;16.20;99.90;;;;;;5031781;28;20596;-77
2023/07/06 04:48:00;;;;;;;2.97;1.30;;;16.40;99.90;;;;;;5031828;28;20611;-77
2023/07/06 04:50:27;;;;;;;2.47;1.57;;;16.50;99.90;;;;;;5031803;28;20564;-77
2023/07/06 04:52:58;;;;;;;3.40;1.30;;;16.60;99.90;;;;;;5031670;28;20576;-77
2023/07/06 04:55:26;;;;;;;3.10;1.50;;;16.70;99.90;;;;;;5014566;28;20701;-77
2023/07/06 04:57:54;;;;;;;2.93;1.13;;;16.80;99.90;;;;;;5033118;28;21295;-77
2023/07/06 05:00:24;;;;;;;2.50;1.20;;;16.90;99.90;;;;;;5036325;28;20607;-77
2023/07/06 05:02:52;;;;;;;2.03;1.20;;;17.10;99.90;;;;;;5031319;28;20603;-77
2023/07/06 05:05:18;;;;;;;4.27;1.43;;;17.30;99.90;;;;;;5031912;28;20662;-76
2023/07/06 05:07:46;;;;;;;2.80;1.30;;;17.40;99.90;;;;;;5031045;28;20588;-77
2023/07/06 05:10:12;;;;;;;4.13;1.20;;;17.50;99.90;;;;;;5015247;28;20590;-76
2023/07/06 05:12:39;;;;;;;2.07;0.97;;;17.60;99.90;;;;;;5014872;28;20649;-76
2023/07/06 05:15:06;;;;;;;3.20;1.07;;;17.70;99.90;;;;;;5032266;28;21212;-76
2023/07/06 05:17:34;;;;;;;2.30;1.50;;;17.90;99.90;;;;;;5031012;28;20679;-76
2023/07/06 05:19:59;;;;;;;3.37;1.27;;;18.10;99.90;;;;;;5031778;28;20683;-77
2023/07/06 05:22:26;;;;;;;4.50;1.60;;;18.20;99.90;;;;;;5014966;28;20630;-77
2023/07/06 05:24:52;;;;;;;3.90;1.10;;;18.40;99.90;;;;;;5031861;28;20544;-77
2023/07/06 05:27:19;;;;;;;2.70;1.20;;;18.50;99.90;;;;;;5015056;28;20584;-77
2023/07/06 05:29:45;;;;;;;3.97;1.00;;;18.70;99.90;;;;;;5031869;28;20923;-77
2023/07/06 05:32:11;;;;;;;2.40;1.10;;;18.70;99.90;;;;;;5031451;28;20584;-77
2023/07/06 05:34:36;;;;;;;2.13;1.00;;;18.70;99.90;;;;;;5031180;28;20213;-77
2023/07/06 05:37:02;;;;;;;4.63;1.10;;;18.80;99.90;;;;;;5033674;28;20182;-77
2023/07/06 05:39:29;;;;;;;3.60;1.20;;;18.80;99.90;;;;;;5031233;28;20174;-77
2023/07/06 05:41:55;;;;;;;3.67;1.60;;;18.90;99.90;;;;;;4998261;28;20853;-77
2023/07/06 05:44:21;;;;;;;3.00;1.07;;;18.90;99.90;;;;;;5030495;28;20715;-77
2023/07/06 05:46:46;;;;;;;3.63;1.13;;;19.00;99.90;;;;;;5030886;28;20219;-77
2023/07/06 05:49:12;;;;;;;2.63;1.33;;;19.00;99.90;;;;;;5032687;28;21099;-77
2023/07/06 05:51:37;;;;;;;3.90;1.20;;;19.00;99.90;;;;;;5031976;28;20761;-77
2023/07/06 05:54:03;;;;;;;3.53;1.37;;;19.10;99.90;;;;;;5013730;28;20201;-76
2023/07/06 05:56:31;;;;;;;4.70;0.90;;;19.20;99.90;;;;;;5030678;28;20173;-77
2023/07/06 05:58:59;;;;;;;3.20;1.20;;;19.50;99.90;;;;;;5030283;28;20185;-76
2023/07/06 06:01:25;;;;;;;3.00;0.90;;;20.10;99.90;;;;;;5029424;28;20580;-76
2023/07/06 06:03:52;;;;;;;3.90;1.10;;;21.00;99.90;;;;;;5031557;28;21143;-77
2023/07/06 06:06:21;;;;;;;2.00;1.00;;;21.90;99.90;;;;;;5029892;28;20953;-77
2023/07/06 06:08:48;;;;;;;2.40;0.90;;;22.90;99.90;;;;;;5030932;28;20614;-77
2023/07/06 06:11:15;;;;;;;2.27;0.90;;;24.00;99.90;;;;;;5030560;28;20596;-76
2023/07/06 06:13:43;;;;;;;4.17;1.00;;;25.10;99.90;;;;;;5032252;28;20565;-76
2023/07/06 06:16:12;;;;;;;4.80;1.03;;;26.00;99.90;;;;;;5030619;28;20725;-76
2023/07/06 06:18:39;;;;;;;4.93;1.00;;;26.70;99.90;;;;;;5031737;28;20561;-76
2023/07/06 06:21:10;;;;;;;2.70;0.90;;;27.50;99.90;;;;;;5031133;28;20613;-76
2023/07/06 06:23:36;;;;;;;2.70;0.70;;;28.30;99.90;;;;;;5030011;28;20815;-76
2023/07/06 06:26:02;;;;;;;2.57;1.00;;;29.40;99.90;;;;;;5029863;28;20704;-76
2023/07/06 06:28:28;;;;;;;2.30;0.90;;;30.00;99.90;;;;;;5013584;28;20201;-76
2023/07/06 06:30:55;;;;;;;3.00;0.97;;;30.70;99.90;;;;;;5030499;28;20581;-76
2023/07/06 06:33:21;;;;;;;6.33;1.37;;;31.40;99.90;;;;;;5029926;28;20593;-76
2023/07/06 06:35:46;;;;;;;2.53;0.80;;;32.10;99.90;;;;;;5030280;28;21204;-76
2023/07/06 06:38:14;;;;;;;2.90;0.90;;;32.70;99.90;;;;;;5013778;28;20208;-75
2023/07/06 06:40:40;;;;;;;2.20;0.70;;;33.30;99.50;;;;;;5030387;28;20169;-76
2023/07/06 06:43:06;;;;;;;3.17;1.00;;;33.80;97.50;;;;;;5029696;28;20961;-76
2023/07/06 06:45:32;;;;;;;2.43;0.83;;;34.20;95.50;;;;;;5030644;28;20614;-76
2023/07/06 06:48:02;;;;;;;2.73;1.20;;;34.60;94.00;;;;;;5029608;28;20635;-76
2023/07/06 06:50:28;;;;;;;2.60;0.70;;;34.90;92.10;;;;;;5028274;28;21156;-77
2023/07/06 06:52:54;;;;;;;1.80;0.90;;;35.40;91.20;;;;;;5029326;28;20583;-76
2023/07/06 06:55:20;;;;;;;2.50;0.93;;;35.70;89.30;;;;;;5028532;28;20700;-76
2023/07/06 06:57:46;;;;;;;6.47;0.80;;;36.10;86.80;;;;;;5030657;28;20633;-77
2023/07/06 07:00:16;;;;;;;2.23;0.97;;;36.40;83.90;;;;;;5029267;28;20216;-76
2023/07/06 07:02:43;;;;;;;2.00;0.73;;;36.60;79.70;;;;;;5029104;28;20581;-77
2023/07/06 07:05:12;;;;;;;2.73;0.73;;;36.80;77.60;;;;;;5029452;28;20612;-76
2023/07/06 07:07:38;;;;;;;1.97;0.70;;;37.00;75.40;;;;;;5029016;28;20576;-76
2023/07/06 07:10:09;;;;;;;1.70;0.70;;;37.20;73.30;;;;;;5030425;28;20657;-76
2023/07/06 07:12:37;;;;;;;4.73;1.00;;;37.40;71.00;;;;;;5030141;28;20165;-76
2023/07/06 07:15:04;;;;;;;3.10;0.70;;;37.60;68.70;;;;;;5030405;28;20676;-76
2023/07/06 07:17:30;;;;;;;2.50;0.80;;;37.80;67.00;;;;;;5012105;28;20584;-76
2023/07/06 07:19:56;;;;;;;1.73;0.70;;;37.90;64.80;;;;;;5029275;28;20642;-76
2023/07/06 07:22:22;;;;;;;5.17;1.20;;;38.00;62.80;;;;;;5011560;28;20588;-76
2023/07/06 07:24:48;;;;;;;3.30;1.00;;;38.20;61.70;;;;;;5028688;28;20209;-76
2023/07/06 07:27:14;;;;;;;3.07;0.80;;;38.30;60.40;;;;;;5029746;28;20580;-76
2023/07/06 07:29:42;;;;;;;2.53;0.80;;;38.40;59.60;;;;;;5029375;28;20184;-75
2023/07/06 07:32:08;;;;;;;3.40;0.70;;;38.50;58.30;;;;;;5027614;28;21163;-76
2023/07/06 07:34:34;;;;;;;2.43;0.83;;;38.70;57.70;;;;;;5028250;28;20642;-76
2023/07/06 07:36:59;;;;;;;2.60;0.80;;;38.80;56.90;;;;;;5028526;28;20184;-76
2023/07/06 07:39:25;;;;;;;2.47;0.60;;;38.90;56.10;;;;;;5030015;28;20173;-76
2023/07/06 07:41:52;;;;;;;3.10;0.80;;;39.10;55.40;;;;;;5029837;28;20646;-76
2023/07/06 07:44:18;;;;;;;1.67;0.60;;;39.30;54.60;;;;;;5028599;28;20221;-76
2023/07/06 07:46:44;;;;;;;3.43;0.93;;;39.30;53.60;;;;;;5028319;28;21131;-76
2023/07/06 07:49:10;;;;;;;1.50;0.60;;;39.40;53.20;;;;;;5028462;28;20224;-76
2023/07/06 07:51:36;;;;;;;1.67;0.60;;;39.50;52.60;;;;;;5028840;28;20641;-76
2023/07/06 07:54:02;;;;;;;1.80;0.70;;;39.60;52.00;;;;;;5028610;28;20178;-76
2023/07/06 07:56:28;;;;;;;3.07;0.70;;;39.70;51.60;;;;;;5029744;28;20653;-76
2023/07/06 07:58:54;;;;;;;2.80;0.80;;;39.80;50.70;;;;;;5028272;28;20576;-76
2023/07/06 08:01:22;;;;;;;1.80;0.80;;;39.90;50.30;;;;;;5011275;28;20177;-76
2023/07/06 08:03:48;;;;;;;2.17;0.70;;;40.00;49.90;;;;;;5014833;28;20900;-77
2023/07/06 08:06:17;;;;;;;6.70;0.90;;;40.20;49.40;;;;;;5012890;28;20654;-76
2023/07/06 08:08:43;;;;;;;3.53;0.90;;;40.20;48.50;;;;;;5027652;28;20683;-76
2023/07/06 08:11:20;;;;;;;3.10;0.73;;;40.20;47.90;;;;;;5029051;28;20575;-76
2023/07/06 08:13:50;;;;;;;2.20;0.60;;;40.10;46.60;;;;;;5011962;28;20565;-76
2023/07/06 08:16:16;;;;;;;3.87;0.93;;;40.20;47.20;;;;;;5012989;28;20612;-76
2023/07/06 08:18:46;;;;;;;1.93;0.60;;;40.20;46.80;;;;;;5032960;28;20716;-76
2023/07/06 08:21:13;;;;;;;2.77;0.80;;;40.30;46.60;;;;;;5031735;28;20672;-76
2023/07/06 08:23:47;;;;;;;1.50;0.60;;;40.30;46.20;;;;;;5032229;28;20576;-76
2023/07/06 08:26:13;;;;;;;2.97;0.70;;;40.40;45.30;;;;;;5032393;28;21148;-76
2023/07/06 08:28:40;;;;;;;1.80;0.70;;;40.40;45.10;;;;;;5033117;28;20603;-76
2023/07/06 08:31:26;;;;;;;2.00;0.70;;;40.40;44.60;;;;;;5032244;28;21115;-76
2023/07/06 08:33:52;;;;;;;1.70;0.60;;;40.40;44.80;;;;;;5015657;28;21140;-76
2023/07/06 08:36:20;;;;;;;3.63;0.80;;;40.50;45.00;;;;;;5031831;28;20614;-76
2023/07/06 08:38:46;;;;;;;2.50;0.70;;;40.60;44.00;;;;;;5013946;28;20170;-76
2023/07/06 08:41:34;;;;;;;1.80;0.60;;;40.60;44.10;;;;;;5031636;28;20620;-76
2023/07/06 08:44:05;;;;;;;2.17;0.70;;;40.80;44.10;;;;;;5014793;28;20592;-76
2023/07/06 08:46:36;;;;;;;4.30;1.07;;;40.80;42.90;;;;;;5031720;28;20698;-76
2023/07/06 08:49:03;;;;;;;1.70;0.60;;;40.30;42.30;;;;;;5031507;28;20580;-76
2023/07/06 08:51:34;;;;;;;3.00;0.60;;;39.70;41.20;;;;;;5031006;28;20588;-75
2023/07/06 08:54:26;;;;;;;3.00;1.17;;;39.20;41.50;;;;;;5031867;28;20576;-75
2023/07/06 08:56:53;;;;;;;2.37;0.97;;;39.10;42.40;;;;;;5030010;28;21355;-76
2023/07/06 08:59:33;;;;;;;3.13;0.73;;;39.00;42.90;;;;;;5032696;28;20561;-76
2023/07/06 09:02:09;;;;;;;2.13;0.80;;;39.20;42.70;;;;;;5030894;28;20624;-76
2023/07/06 09:04:35;;;;;;;2.17;0.70;;;39.30;42.90;;;;;;5031417;28;20669;-76
2023/07/06 09:07:02;;;;;;;2.37;0.80;;;39.60;43.40;;;;;;5031230;28;21100;-76
2023/07/06 09:09:28;;;;;;;1.60;0.80;;;39.90;42.60;;;;;;5031794;28;20579;-76
2023/07/06 09:11:57;;;;;;;2.73;0.70;;;40.20;42.00;;;;;;5030610;28;20569;-76
2023/07/06 09:14:27;;;;;;;2.43;0.60;;;40.40;41.40;;;;;;5030720;28;20652;-76
2023/07/06 09:16:55;;;;;;;2.63;0.80;;;40.60;41.10;;;;;;5029635;28;20584;-77
2023/07/06 09:19:23;;;;;;;1.70;0.70;;;40.70;41.00;;;;;;5031908;28;20959;-76
2023/07/06 09:21:54;;;;;;;2.10;0.97;;;40.90;40.70;;;;;;5038736;28;20577;-76
2023/07/06 09:24:27;;;;;;;2.33;0.80;;;41.20;40.00;;;;;;5031024;28;20677;-76
2023/07/06 09:26:53;;;;;;;4.80;2.03;;;41.30;39.70;;;;;;5014179;28;20587;-76
2023/07/06 09:29:33;;;;;;;1.90;1.10;;;41.20;38.70;;;;;;5013749;28;20683;-76
2023/07/06 09:32:19;;;;;;;1.77;0.70;;;41.10;37.90;;;;;;5013594;28;21237;-76
2023/07/06 09:34:55;;;;;;;2.63;0.70;;;41.10;38.00;;;;;;5030876;28;21273;-77
2023/07/06 09:37:21;;;;;;;1.70;0.70;;;40.90;37.00;;;;;;4997218;28;20598;-76
2023/07/06 09:40:03;;;;;;;1.60;0.70;;;40.90;37.70;;;;;;5028817;28;20624;-76
2023/07/06 09:42:29;;;;;;;1.70;0.60;;;40.80;37.50;;;;;;5029899;28;20608;-77
2023/07/06 09:44:55;;;;;;;2.40;0.60;;;40.80;37.30;;;;;;5030909;28;20984;-76
2023/07/06 09:47:22;;;;;;;4.30;0.70;;;40.70;37.30;;;;;;5029953;28;21163;-76
2023/07/06 09:50:05;;;;;;;2.60;0.80;;;40.70;37.10;;;;;;5024167;28;20637;-77
2023/07/06 09:52:37;;;;;;;1.53;0.70;;;40.70;36.60;;;;;;5034474;28;20580;-77
2023/07/06 09:55:13;;;;;;;1.70;0.60;;;40.80;37.20;;;;;;5033047;28;20650;-76
2023/07/06 09:57:40;;;;;;;1.80;0.80;;;40.90;37.30;;;;;;5030758;28;20584;-77
2023/07/06 10:00:16;;;;;;;1.93;0.70;;;40.90;37.50;;;;;;5030419;28;20588;-77
2023/07/06 10:02:51;;;;;;;2.63;0.90;;;40.60;36.30;;;;;;5031073;28;20565;-76
2023/07/06 10:05:54;;;;;;;2.50;0.70;;;40.40;36.50;;;;;;5013416;28;20782;-77
2023/07/06 10:08:24;;;;;;;2.77;0.70;;;40.00;36.00;;;;;;5027303;28;21035;-76
2023/07/06 10:11:12;;;;;;;2.10;0.70;;;39.90;37.20;;;;;;5031397;28;20636;-76
2023/07/06 10:13:47;;;;;;;4.20;1.40;;;40.00;36.80;;;;;;5014891;28;20596;-77
2023/07/06 10:16:24;;;;;;;2.00;0.87;;;40.10;37.00;;;;;;5031647;28;20698;-77
2023/07/06 10:19:11;;;;;;;2.23;1.13;;;40.00;36.20;;;;;;5013459;28;20572;-77
2023/07/06 10:21:56;;;;;;;1.80;0.70;;;39.40;34.60;;;;;;5030482;28;20587;-76
2023/07/06 10:24:31;;;;;;;3.40;0.90;;;38.60;34.40;;;;;;5031711;28;20690;-76
2023/07/06 10:27:02;;;;;;;1.40;0.60;;;37.60;34.30;;;;;;5012016;28;20576;-76
2023/07/06 10:29:39;;;;;;;1.70;0.70;;;37.00;34.90;;;;;;5028718;28;20859;-76
2023/07/06 10:32:11;;;;;;;2.43;0.60;;;36.70;35.80;;;;;;5027598;28;20584;-76
2023/07/06 10:35:05;;;;;;;1.70;0.80;;;36.70;36.60;;;;;;5030574;28;20671;-76
2023/07/06 10:37:34;;;;;;;1.50;0.50;;;36.70;35.80;;;;;;5029036;28;20582;-76
2023/07/06 10:40:04;;;;;;;2.10;0.67;;;36.70;37.10;;;;;;5029723;28;20573;-76
2023/07/06 10:42:31;;;;;;;2.47;0.97;;;36.80;36.60;;;;;;5031107;28;20644;-76
2023/07/06 10:44:58;;;;;;;1.93;0.80;;;37.00;36.90;;;;;;5029118;28;20655;-76
2023/07/06 10:47:35;;;;;;;1.77;0.60;;;37.30;37.00;;;;;;5029272;28;21187;-76
2023/07/06 10:50:07;;;;;;;1.80;0.57;;;37.60;35.90;;;;;;5029787;28;20568;-76
2023/07/06 10:52:39;;;;;;;1.67;0.70;;;37.80;35.50;;;;;;5012908;28;20653;-76
2023/07/06 10:55:18;;;;;;;2.40;1.00;;;38.10;36.00;;;;;;5030199;28;20680;-77
2023/07/06 10:57:51;;;;;;;2.30;1.13;;;38.30;35.90;;;;;;5029577;28;20568;-76
2023/07/06 11:00:20;;;;;;;2.40;0.90;;;38.40;35.80;;;;;;5030784;28;20650;-77
2023/07/06 11:02:46;;;;;;;2.70;1.00;;;38.50;35.60;;;;;;5029655;28;20583;-76
2023/07/06 11:05:15;;;;;;;3.27;0.70;;;38.40;35.50;;;;;;4996267;28;21011;-77
2023/07/06 11:07:45;;;;;;;1.50;0.50;;;38.30;35.10;;;;;;5029507;28;20579;-76
2023/07/06 11:10:14;;;;;;;3.30;0.60;;;38.30;35.10;;;;;;5013323;28;20611;-77
2023/07/06 11:12:57;;;;;;;1.90;0.60;;;38.30;35.40;;;;;;5029309;28;20979;-77
2023/07/06 11:15:32;;;;;;;1.40;0.60;;;38.20;34.30;;;;;;5025142;28;20668;-76
2023/07/06 11:18:12;;;;;;;1.60;0.60;;;38.20;35.10;;;;;;5028376;28;20608;-78
2023/07/06 11:20:39;;;;;;;2.20;1.10;;;38.20;34.90;;;;;;5028320;28;20592;-75
2023/07/06 11:23:12;;;;;;;2.13;0.67;;;38.20;34.90;;;;;;5011960;28;20688;-77
2023/07/06 11:25:39;;;;;;;1.60;0.50;;;38.20;34.30;;;;;;5028585;28;20632;-77
2023/07/06 11:28:10;;;;;;;3.00;0.60;;;38.10;34.40;;;;;;5028091;28;20686;-76
2023/07/06 11:30:49;;;;;;;1.37;0.50;;;38.10;34.20;;;;;;5012099;28;20683;-76
2023/07/06 11:33:30;;;;;;;1.50;0.50;;;38.00;33.60;;;;;;5027745;28;20759;-76
2023/07/06 11:36:32;;;;;;;1.43;0.53;;;37.60;33.50;;;;;;5029533;28;21056;-77
2023/07/06 11:39:26;;;;;;;1.57;0.70;;;37.40;33.30;;;;;;5021725;28;20641;-77
2023/07/06 11:41:58;;;;;;;1.47;0.60;;;37.10;32.90;;;;;;5028942;28;20656;-77
2023/07/06 11:44:45;;;;;;;2.13;0.60;;;36.60;33.00;;;;;;5029730;28;20616;-75
2023/07/06 11:47:30;;;;;;;1.90;0.60;;;36.20;33.20;;;;;;5029864;28;20585;-75
2023/07/06 11:49:59;;;;;;;1.57;0.60;;;36.00;33.90;;;;;;5012408;28;20568;-74
2023/07/06 11:52:32;;;;;;;1.50;0.50;;;35.80;34.00;;;;;;5015243;28;20579;-74
2023/07/06 11:55:15;;;;;;;1.40;0.60;;;35.50;33.70;;;;;;5033364;28;20635;-75
2023/07/06 11:58:05;;;;;;;1.50;0.60;;;35.10;33.50;;;;;;5014951;28;20595;-74
2023/07/06 12:00:38;;;;;;;1.87;0.50;;;34.70;33.80;;;;;;5032651;28;20574;-74
2023/07/06 12:03:05;;;;;;;3.20;0.60;;;34.40;33.90;;;;;;5031509;28;20957;-74
2023/07/06 12:06:00;;;;;;;1.40;0.60;;;34.10;33.80;;;;;;5015359;28;20617;-74
2023/07/06 12:08:37;;;;;;;1.60;0.70;;;33.80;34.00;;;;;;4999269;28;21193;-75
2023/07/06 12:11:06;;;;;;;2.37;0.80;;;33.70;34.90;;;;;;5031599;28;20624;-75
2023/07/06 12:13:39;;;;;;;1.40;0.60;;;33.60;34.70;;;;;;5032223;28;20694;-74
2023/07/06 12:16:13;;;;;;;1.53;0.60;;;33.50;34.70;;;;;;5015186;28;20730;-75
2023/07/06 12:18:40;;;;;;;1.80;0.70;;;33.50;34.60;;;;;;5011994;28;20567;-75
2023/07/06 12:21:33;;;;;;;1.97;0.60;;;33.40;34.60;;;;;;5012784;28;20645;-76
2023/07/06 12:24:04;;;;;;;2.00;0.60;;;33.20;34.20;;;;;;5012137;28;20714;-76
2023/07/06 12:26:30;;;;;;;1.70;0.60;;;33.10;35.00;;;;;;4995943;28;20579;-76
2023/07/06 12:28:57;;;;;;;2.70;0.50;;;33.10;35.00;;;;;;5013808;28;20571;-79
2023/07/06 12:31:25;;;;;;;2.30;0.60;;;32.90;34.80;;;;;;5014960;28;20596;-77
2023/07/06 12:33:58;;;;;;;3.47;0.97;;;32.80;34.70;;;;;;5015198;28;20921;-75
2023/07/06 12:36:35;;;;;;;2.80;0.70;;;32.70;35.60;;;;;;5015344;28;20597;-75
2023/07/06 12:39:05;;;;;;;2.83;1.27;;;32.60;35.30;;;;;;5032746;28;20566;-76
2023/07/06 12:41:36;;;;;;;2.00;0.90;;;32.60;35.60;;;;;;5031523;28;20578;-76
2023/07/06 12:44:05;;;;;;;2.00;1.30;;;32.60;35.50;;;;;;5031324;28;20633;-75
2023/07/06 12:46:33;;;;;;;2.80;1.50;;;32.60;35.50;;;;;;5032920;28;20962;-76
2023/07/06 12:49:06;;;;;;;2.47;1.40;;;32.50;35.60;;;;;;5032256;28;20582;-75
2023/07/06 12:51:32;;;;;;;3.87;1.30;;;32.40;35.20;;;;;;5014542;28;20573;-74
2023/07/06 12:53:58;;;;;;;2.47;1.37;;;32.20;35.20;;;;;;5032054;28;20568;-74
2023/07/06 12:56:29;;;;;;;2.03;0.77;;;32.00;35.20;;;;;;5032658;28;20647;-75
2023/07/06 12:58:58;;;;;;;2.73;1.00;;;31.80;35.00;;;;;;5031586;28;20639;-74
2023/07/06 13:01:39;;;;;;;2.03;0.80;;;31.50;35.70;;;;;;5014352;28;20630;-76
2023/07/06 13:04:07;;;;;;;1.70;0.83;;;31.30;35.20;;;;;;5031377;28;20584;-75